sensor_id;sensor_type;location;lat;lon;timestamp;pressure;altitude;pressure_sealevel;temperature;humidity
78337;BME280;67610;51.588;7.002;2023-03-23T00:01:07;99709.53;;;13.02;69.88
78337;BME280;67610;51.588;7.002;2023-03-23T00:03:38;99707.69;;;13.02;69.93
78337;BME280;67610;51.588;7.002;2023-03-23T00:06:04;99703.44;;;13.01;69.75
78337;BME280;67610;51.588;7.002;2023-03-23T00:08:38;99701.41;;;13.03;69.76
78337;BME280;67610;51.588;7.002;2023-03-23T00:11:16;99699.13;;;13.00;69.67
78337;BME280;67610;51.588;7.002;2023-03-23T00:13:43;99693.69;;;13.02;69.74
78337;BME280;67610;51.588;7.002;2023-03-23T00:16:09;99683.31;;;13.00;69.78
78337;BME280;67610;51.588;7.002;2023-03-23T00:18:50;99681.78;;;13.06;69.58
78337;BME280;67610;51.588;7.002;2023-03-23T00:21:19;99672.16;;;13.05;69.56
78337;BME280;67610;51.588;7.002;2023-03-23T00:23:45;99674.38;;;13.01;69.27
78337;BME280;67610;51.588;7.002;2023-03-23T00:26:11;99672.16;;;13.05;69.52
78337;BME280;67610;51.588;7.002;2023-03-23T00:28:37;99668.19;;;13.09;68.95
78337;BME280;67610;51.588;7.002;2023-03-23T00:31:06;99670.38;;;13.05;69.17
78337;BME280;67610;51.588;7.002;2023-03-23T00:33:35;99660.44;;;13.07;68.99
78337;BME280;67610;51.588;7.002;2023-03-23T00:36:13;99663.97;;;13.14;68.73
78337;BME280;67610;51.588;7.002;2023-03-23T00:38:39;99656.41;;;13.11;68.71
78337;BME280;67610;51.588;7.002;2023-03-23T00:41:05;99667.38;;;13.08;68.73
78337;BME280;67610;51.588;7.002;2023-03-23T00:43:32;99663.13;;;13.14;68.51
78337;BME280;67610;51.588;7.002;2023-03-23T00:46:01;99655.84;;;13.16;68.28
78337;BME280;67610;51.588;7.002;2023-03-23T00:48:28;99663.97;;;13.14;68.16
78337;BME280;67610;51.588;7.002;2023-03-23T00:50:55;99660.69;;;13.12;68.21
78337;BME280;67610;51.588;7.002;2023-03-23T00:53:21;99661.13;;;13.16;68.01
78337;BME280;67610;51.588;7.002;2023-03-23T00:55:48;99665.81;;;13.20;67.85
78337;BME280;67610;51.588;7.002;2023-03-23T00:58:14;99661.34;;;13.21;67.72
78337;BME280;67610;51.588;7.002;2023-03-23T01:00:41;99661.81;;;13.24;67.67
78337;BME280;67610;51.588;7.002;2023-03-23T01:03:09;99659.53;;;13.21;67.39
78337;BME280;67610;51.588;7.002;2023-03-23T01:05:38;99655.25;;;13.20;67.69
78337;BME280;67610;51.588;7.002;2023-03-23T01:08:05;99651.63;;;13.21;67.47
78337;BME280;67610;51.588;7.002;2023-03-23T01:10:31;99651.00;;;13.19;67.47
78337;BME280;67610;51.588;7.002;2023-03-23T01:13:04;99664.63;;;13.23;67.72
78337;BME280;67610;51.588;7.002;2023-03-23T01:15:30;99669.72;;;13.24;67.61
78337;BME280;67610;51.588;7.002;2023-03-23T01:17:56;99667.91;;;13.25;67.53
78337;BME280;67610;51.588;7.002;2023-03-23T01:20:22;99666.09;;;13.32;67.12
78337;BME280;67610;51.588;7.002;2023-03-23T01:22:47;99669.19;;;13.36;66.99
78337;BME280;67610;51.588;7.002;2023-03-23T01:25:13;99656.00;;;13.36;66.92
78337;BME280;67610;51.588;7.002;2023-03-23T01:27:39;99653.59;;;13.41;66.91
78337;BME280;67610;51.588;7.002;2023-03-23T01:30:06;99645.03;;;13.39;66.77
78337;BME280;67610;51.588;7.002;2023-03-23T01:32:35;99637.91;;;13.39;66.73
78337;BME280;67610;51.588;7.002;2023-03-23T01:35:00;99628.78;;;13.42;66.54
78337;BME280;67610;51.588;7.002;2023-03-23T01:37:26;99605.47;;;13.45;66.27
78337;BME280;67610;51.588;7.002;2023-03-23T01:39:55;99607.72;;;13.48;66.21
78337;BME280;67610;51.588;7.002;2023-03-23T01:42:29;99605.25;;;13.47;66.39
78337;BME280;67610;51.588;7.002;2023-03-23T01:47:21;99617.22;;;13.43;66.43
78337;BME280;67610;51.588;7.002;2023-03-23T01:49:49;99605.47;;;13.45;66.36
78337;BME280;67610;51.588;7.002;2023-03-23T01:52:20;99599.78;;;13.48;65.98
78337;BME280;67610;51.588;7.002;2023-03-23T01:54:51;99598.78;;;13.49;66.09
78337;BME280;67610;51.588;7.002;2023-03-23T01:57:19;99606.28;;;13.46;66.28
78337;BME280;67610;51.588;7.002;2023-03-23T01:59:49;99598.34;;;13.46;66.38
78337;BME280;67610;51.588;7.002;2023-03-23T02:02:17;99587.38;;;13.49;66.31
78337;BME280;67610;51.588;7.002;2023-03-23T02:04:44;99592.03;;;13.47;66.25
78337;BME280;67610;51.588;7.002;2023-03-23T02:07:11;99587.19;;;13.50;66.20
78337;BME280;67610;51.588;7.002;2023-03-23T02:09:37;99605.50;;;13.52;65.87
78337;BME280;67610;51.588;7.002;2023-03-23T02:12:03;99602.47;;;13.55;65.78
78337;BME280;67610;51.588;7.002;2023-03-23T02:14:29;99597.81;;;13.57;65.65
78337;BME280;67610;51.588;7.002;2023-03-23T02:17:04;99595.16;;;13.57;65.68
78337;BME280;67610;51.588;7.002;2023-03-23T02:28:16;99590.88;;;13.56;65.73
78337;BME280;67610;51.588;7.002;2023-03-23T02:33:34;99592.50;;;13.57;65.93
78337;BME280;67610;51.588;7.002;2023-03-23T02:36:19;99584.97;;;13.54;66.28
78337;BME280;67610;51.588;7.002;2023-03-23T02:39:07;99577.44;;;13.51;66.43
78337;BME280;67610;51.588;7.002;2023-03-23T02:41:41;99582.94;;;13.56;66.33
78337;BME280;67610;51.588;7.002;2023-03-23T02:44:08;99578.28;;;13.58;66.07
78337;BME280;67610;51.588;7.002;2023-03-23T02:46:36;99565.28;;;13.63;66.02
78337;BME280;67610;51.588;7.002;2023-03-23T02:49:04;99555.31;;;13.58;66.17
78337;BME280;67610;51.588;7.002;2023-03-23T02:51:33;99547.16;;;13.53;66.39
78337;BME280;67610;51.588;7.002;2023-03-23T02:54:00;99546.38;;;13.53;66.49
78337;BME280;67610;51.588;7.002;2023-03-23T02:56:26;99571.97;;;13.52;66.50
78337;BME280;67610;51.588;7.002;2023-03-23T02:58:54;99565.88;;;13.52;66.69
78337;BME280;67610;51.588;7.002;2023-03-23T03:03:56;99563.59;;;13.49;66.91
78337;BME280;67610;51.588;7.002;2023-03-23T03:09:11;99569.25;;;13.39;67.37
78337;BME280;67610;51.588;7.002;2023-03-23T03:11:42;99548.13;;;13.39;67.15
78337;BME280;67610;51.588;7.002;2023-03-23T03:14:13;99557.69;;;13.40;67.22
78337;BME280;67610;51.588;7.002;2023-03-23T03:16:53;99563.56;;;13.36;67.22
78337;BME280;67610;51.588;7.002;2023-03-23T03:19:29;99567.84;;;13.37;67.30
78337;BME280;67610;51.588;7.002;2023-03-23T03:21:58;99572.09;;;13.38;67.11
78337;BME280;67610;51.588;7.002;2023-03-23T03:24:26;99560.91;;;13.36;67.13
78337;BME280;67610;51.588;7.002;2023-03-23T03:26:52;99564.97;;;13.32;67.21
78337;BME280;67610;51.588;7.002;2023-03-23T03:29:21;99552.97;;;13.36;67.00
78337;BME280;67610;51.588;7.002;2023-03-23T03:31:50;99544.25;;;13.35;67.07
78337;BME280;67610;51.588;7.002;2023-03-23T03:34:16;99549.53;;;13.35;66.70
78337;BME280;67610;51.588;7.002;2023-03-23T03:36:43;99553.97;;;13.35;66.95
78337;BME280;67610;51.588;7.002;2023-03-23T03:39:11;99547.31;;;13.39;66.74
78337;BME280;67610;51.588;7.002;2023-03-23T03:41:38;99552.97;;;13.36;66.73
78337;BME280;67610;51.588;7.002;2023-03-23T03:44:05;99553.38;;;13.32;67.01
78337;BME280;67610;51.588;7.002;2023-03-23T03:46:32;99552.78;;;13.37;66.75
78337;BME280;67610;51.588;7.002;2023-03-23T03:48:58;99549.97;;;13.39;66.76
78337;BME280;67610;51.588;7.002;2023-03-23T03:51:24;99543.41;;;13.35;66.89
78337;BME280;67610;51.588;7.002;2023-03-23T03:53:50;99540.00;;;13.34;66.76
78337;BME280;67610;51.588;7.002;2023-03-23T03:56:16;99546.25;;;13.33;66.66
78337;BME280;67610;51.588;7.002;2023-03-23T03:58:42;99538.72;;;13.30;66.78
78337;BME280;67610;51.588;7.002;2023-03-23T04:01:09;99535.47;;;13.28;66.84
78337;BME280;67610;51.588;7.002;2023-03-23T04:03:39;99543.84;;;13.32;66.83
78337;BME280;67610;51.588;7.002;2023-03-23T04:06:04;99544.63;;;13.32;66.80
78337;BME280;67610;51.588;7.002;2023-03-23T04:08:30;99552.38;;;13.34;66.67
78337;BME280;67610;51.588;7.002;2023-03-23T04:10:57;99538.34;;;13.33;66.87
78337;BME280;67610;51.588;7.002;2023-03-23T04:13:22;99541.81;;;13.34;66.73
78337;BME280;67610;51.588;7.002;2023-03-23T04:15:48;99550.72;;;13.32;66.73
78337;BME280;67610;51.588;7.002;2023-03-23T04:18:15;99555.19;;;13.32;66.83
78337;BME280;67610;51.588;7.002;2023-03-23T04:20:43;99565.19;;;13.37;66.72
78337;BME280;67610;51.588;7.002;2023-03-23T04:23:09;99558.88;;;13.38;66.53
78337;BME280;67610;51.588;7.002;2023-03-23T04:25:35;99567.41;;;13.40;66.68
78337;BME280;67610;51.588;7.002;2023-03-23T04:28:01;99571.50;;;13.42;66.61
78337;BME280;67610;51.588;7.002;2023-03-23T04:30:28;99556.47;;;13.43;66.56
78337;BME280;67610;51.588;7.002;2023-03-23T04:32:55;99570.31;;;13.45;66.40
78337;BME280;67610;51.588;7.002;2023-03-23T04:35:23;99568.66;;;13.44;66.38
78337;BME280;67610;51.588;7.002;2023-03-23T04:37:51;99570.31;;;13.45;66.44
78337;BME280;67610;51.588;7.002;2023-03-23T04:40:17;99573.31;;;13.42;66.39
78337;BME280;67610;51.588;7.002;2023-03-23T04:42:44;99578.00;;;13.46;66.09
78337;BME280;67610;51.588;7.002;2023-03-23T04:45:12;99576.78;;;13.42;66.44
78337;BME280;67610;51.588;7.002;2023-03-23T04:47:41;99582.09;;;13.49;66.23
78337;BME280;67610;51.588;7.002;2023-03-23T04:50:12;99563.44;;;13.50;66.04
78337;BME280;67610;51.588;7.002;2023-03-23T04:52:39;99573.59;;;13.53;65.87
78337;BME280;67610;51.588;7.002;2023-03-23T04:55:06;99565.47;;;13.55;65.63
78337;BME280;67610;51.588;7.002;2023-03-23T04:57:32;99568.13;;;13.55;65.81
78337;BME280;67610;51.588;7.002;2023-03-23T04:59:58;99568.50;;;13.52;65.78
78337;BME280;67610;51.588;7.002;2023-03-23T05:02:24;99565.47;;;13.55;65.62
78337;BME280;67610;51.588;7.002;2023-03-23T05:04:50;99573.19;;;13.56;65.52
78337;BME280;67610;51.588;7.002;2023-03-23T05:07:16;99582.78;;;13.64;65.06
78337;BME280;67610;51.588;7.002;2023-03-23T05:09:41;99582.56;;;13.59;65.17
78337;BME280;67610;51.588;7.002;2023-03-23T05:12:09;99593.09;;;13.52;65.56
78337;BME280;67610;51.588;7.002;2023-03-23T05:14:35;99583.75;;;13.56;65.33
78337;BME280;67610;51.588;7.002;2023-03-23T05:17:01;99579.47;;;13.55;65.14
78337;BME280;67610;51.588;7.002;2023-03-23T05:19:27;99587.84;;;13.59;64.95
78337;BME280;67610;51.588;7.002;2023-03-23T05:21:53;99586.84;;;13.60;65.06
78337;BME280;67610;51.588;7.002;2023-03-23T05:24:19;99579.72;;;13.60;65.06
78337;BME280;67610;51.588;7.002;2023-03-23T05:26:44;99591.31;;;13.59;64.95
78337;BME280;67610;51.588;7.002;2023-03-23T05:29:13;99591.47;;;13.58;64.81
78337;BME280;67610;51.588;7.002;2023-03-23T05:31:39;99594.94;;;13.58;65.09
78337;BME280;67610;51.588;7.002;2023-03-23T05:34:05;99596.78;;;13.58;64.98
78337;BME280;67610;51.588;7.002;2023-03-23T05:36:30;99595.78;;;13.59;64.96
78337;BME280;67610;51.588;7.002;2023-03-23T05:38:55;99604.94;;;13.63;64.61
78337;BME280;67610;51.588;7.002;2023-03-23T05:41:25;99604.75;;;13.64;64.88
78337;BME280;67610;51.588;7.002;2023-03-23T05:43:50;99594.13;;;13.58;64.91
78337;BME280;67610;51.588;7.002;2023-03-23T05:46:16;99604.09;;;13.62;64.85
78337;BME280;67610;51.588;7.002;2023-03-23T05:48:42;99590.50;;;13.65;64.45
78337;BME280;67610;51.588;7.002;2023-03-23T05:51:08;99599.88;;;13.68;64.54
78337;BME280;67610;51.588;7.002;2023-03-23T05:53:33;99600.09;;;13.73;63.99
78337;BME280;67610;51.588;7.002;2023-03-23T05:56:01;99600.50;;;13.70;64.02
78337;BME280;67610;51.588;7.002;2023-03-23T05:58:27;99593.59;;;13.69;64.17
78337;BME280;67610;51.588;7.002;2023-03-23T06:00:52;99600.88;;;13.67;64.35
78337;BME280;67610;51.588;7.002;2023-03-23T06:03:18;99604.34;;;13.67;64.38
78337;BME280;67610;51.588;7.002;2023-03-23T06:05:43;99602.13;;;13.71;63.88
78337;BME280;67610;51.588;7.002;2023-03-23T06:08:10;99607.41;;;13.71;63.97
78337;BME280;67610;51.588;7.002;2023-03-23T06:10:36;99603.13;;;13.70;63.91
78337;BME280;67610;51.588;7.002;2023-03-23T06:13:02;99612.72;;;13.71;63.94
78337;BME280;67610;51.588;7.002;2023-03-23T06:15:28;99608.25;;;13.71;64.13
78337;BME280;67610;51.588;7.002;2023-03-23T06:17:58;99609.03;;;13.72;63.89
78337;BME280;67610;51.588;7.002;2023-03-23T06:20:24;99611.50;;;13.73;64.36
78337;BME280;67610;51.588;7.002;2023-03-23T06:22:50;99619.22;;;13.75;64.04
78337;BME280;67610;51.588;7.002;2023-03-23T06:25:17;99624.72;;;13.73;64.18
78337;BME280;67610;51.588;7.002;2023-03-23T06:27:42;99614.94;;;13.74;64.14
78337;BME280;67610;51.588;7.002;2023-03-23T06:30:09;99620.66;;;13.77;64.02
78337;BME280;67610;51.588;7.002;2023-03-23T06:32:35;99625.94;;;13.77;63.90
78337;BME280;67610;51.588;7.002;2023-03-23T06:35:02;99620.66;;;13.77;63.73
78337;BME280;67610;51.588;7.002;2023-03-23T06:37:28;99618.44;;;13.81;63.63
78337;BME280;67610;51.588;7.002;2023-03-23T06:39:54;99627.19;;;13.88;63.39
78337;BME280;67610;51.588;7.002;2023-03-23T06:42:19;99629.47;;;13.91;62.82
78337;BME280;67610;51.588;7.002;2023-03-23T06:44:46;99624.78;;;13.93;63.31
78337;BME280;67610;51.588;7.002;2023-03-23T06:47:12;99610.78;;;13.99;63.20
78337;BME280;67610;51.588;7.002;2023-03-23T06:49:37;99618.91;;;13.97;62.78
78337;BME280;67610;51.588;7.002;2023-03-23T06:52:03;99630.09;;;14.06;62.71
78337;BME280;67610;51.588;7.002;2023-03-23T06:54:29;99626.06;;;14.10;62.47
78337;BME280;67610;51.588;7.002;2023-03-23T06:56:54;99626.69;;;14.12;62.40
78337;BME280;67610;51.588;7.002;2023-03-23T06:59:19;99625.47;;;14.15;62.45
78337;BME280;67610;51.588;7.002;2023-03-23T07:01:45;99632.59;;;14.14;62.52
78337;BME280;67610;51.588;7.002;2023-03-23T07:04:11;99636.06;;;14.15;62.38
78337;BME280;67610;51.588;7.002;2023-03-23T07:06:37;99638.50;;;14.16;61.96
78337;BME280;67610;51.588;7.002;2023-03-23T07:09:03;99638.72;;;14.28;61.65
78337;BME280;67610;51.588;7.002;2023-03-23T07:11:29;99639.19;;;14.31;61.34
78337;BME280;67610;51.588;7.002;2023-03-23T07:13:54;99646.09;;;14.32;61.21
78337;BME280;67610;51.588;7.002;2023-03-23T07:16:20;99640.56;;;14.27;61.12
78337;BME280;67610;51.588;7.002;2023-03-23T07:18:45;99640.81;;;14.32;60.87
78337;BME280;67610;51.588;7.002;2023-03-23T07:21:11;99653.44;;;14.37;60.88
78337;BME280;67610;51.588;7.002;2023-03-23T07:23:36;99658.50;;;14.32;60.89
78337;BME280;67610;51.588;7.002;2023-03-23T07:26:02;99660.56;;;14.36;60.61
78337;BME280;67610;51.588;7.002;2023-03-23T07:28:28;99653.81;;;14.34;61.12
78337;BME280;67610;51.588;7.002;2023-03-23T07:30:53;99655.25;;;14.36;60.49
78337;BME280;67610;51.588;7.002;2023-03-23T07:33:19;99659.78;;;14.42;60.16
78337;BME280;67610;51.588;7.002;2023-03-23T07:35:45;99657.72;;;14.38;60.42
78337;BME280;67610;51.588;7.002;2023-03-23T07:38:10;99663.63;;;14.40;60.11
78337;BME280;67610;51.588;7.002;2023-03-23T07:40:36;99656.50;;;14.40;60.04
78337;BME280;67610;51.588;7.002;2023-03-23T07:43:03;99649.59;;;14.46;60.13
78337;BME280;67610;51.588;7.002;2023-03-23T07:45:29;99651.22;;;14.47;59.87
78337;BME280;67610;51.588;7.002;2023-03-23T07:47:55;99652.06;;;14.60;59.17
78337;BME280;67610;51.588;7.002;2023-03-23T07:50:21;99663.03;;;14.57;59.26
78337;BME280;67610;51.588;7.002;2023-03-23T07:52:49;99658.56;;;14.51;59.51
78337;BME280;67610;51.588;7.002;2023-03-23T07:55:15;99667.50;;;14.50;59.49
78337;BME280;67610;51.588;7.002;2023-03-23T07:57:43;99675.03;;;14.47;59.25
78337;BME280;67610;51.588;7.002;2023-03-23T08:00:09;99670.56;;;14.47;59.04
78337;BME280;67610;51.588;7.002;2023-03-23T08:02:40;99669.53;;;14.48;59.54
78337;BME280;67610;51.588;7.002;2023-03-23T08:05:15;99665.28;;;14.47;59.49
78337;BME280;67610;51.588;7.002;2023-03-23T08:07:42;99657.53;;;14.52;59.13
78337;BME280;67610;51.588;7.002;2023-03-23T08:10:09;99660.81;;;14.54;59.33
78337;BME280;67610;51.588;7.002;2023-03-23T08:12:39;99656.53;;;14.53;59.43
78337;BME280;67610;51.588;7.002;2023-03-23T08:15:05;99656.16;;;14.63;58.99
78337;BME280;67610;51.588;7.002;2023-03-23T08:17:32;99667.13;;;14.66;58.68
78337;BME280;67610;51.588;7.002;2023-03-23T08:19:58;99665.53;;;14.72;58.61
78337;BME280;67610;51.588;7.002;2023-03-23T08:22:23;99655.34;;;14.76;58.40
78337;BME280;67610;51.588;7.002;2023-03-23T08:24:50;99670.44;;;14.82;58.01
78337;BME280;67610;51.588;7.002;2023-03-23T08:27:15;99663.69;;;14.86;57.62
78337;BME280;67610;51.588;7.002;2023-03-23T08:29:43;99667.16;;;14.80;57.87
78337;BME280;67610;51.588;7.002;2023-03-23T08:32:09;99676.94;;;14.79;58.05
78337;BME280;67610;51.588;7.002;2023-03-23T08:34:34;99673.47;;;14.79;58.01
78337;BME280;67610;51.588;7.002;2023-03-23T08:37:00;99672.47;;;14.86;57.53
78337;BME280;67610;51.588;7.002;2023-03-23T08:39:25;99676.13;;;14.92;57.52
78337;BME280;67610;51.588;7.002;2023-03-23T08:41:51;99672.47;;;14.99;57.14
78337;BME280;67610;51.588;7.002;2023-03-23T08:44:16;99678.97;;;14.97;57.60
78337;BME280;67610;51.588;7.002;2023-03-23T08:46:42;99682.66;;;15.02;57.23
78337;BME280;67610;51.588;7.002;2023-03-23T08:49:08;99676.16;;;15.05;56.87
78337;BME280;67610;51.588;7.002;2023-03-23T08:51:33;99681.03;;;15.01;57.41
78337;BME280;67610;51.588;7.002;2023-03-23T08:53:59;99692.66;;;15.00;57.64
78337;BME280;67610;51.588;7.002;2023-03-23T08:56:24;99688.34;;;14.99;57.58
78337;BME280;67610;51.588;7.002;2023-03-23T08:58:49;99686.53;;;15.00;57.93
78337;BME280;67610;51.588;7.002;2023-03-23T09:01:15;99700.78;;;14.99;57.96
78337;BME280;67610;51.588;7.002;2023-03-23T09:03:41;99697.13;;;14.93;58.10
78337;BME280;67610;51.588;7.002;2023-03-23T09:06:08;99689.38;;;14.98;57.95
78337;BME280;67610;51.588;7.002;2023-03-23T09:08:34;99699.97;;;14.98;57.46
78337;BME280;67610;51.588;7.002;2023-03-23T09:11:05;99699.34;;;14.96;57.30
78337;BME280;67610;51.588;7.002;2023-03-23T09:13:32;99705.06;;;14.93;57.08
78337;BME280;67610;51.588;7.002;2023-03-23T09:15:58;99697.13;;;14.87;57.51
78337;BME280;67610;51.588;7.002;2023-03-23T09:18:23;99705.06;;;14.87;57.57
78337;BME280;67610;51.588;7.002;2023-03-23T09:20:50;99695.47;;;14.86;57.40
78337;BME280;67610;51.588;7.002;2023-03-23T09:23:16;99698.72;;;14.88;57.09
78337;BME280;67610;51.588;7.002;2023-03-23T09:25:41;99708.72;;;14.92;56.69
78337;BME280;67610;51.588;7.002;2023-03-23T09:28:08;99707.91;;;14.92;56.75
78337;BME280;67610;51.588;7.002;2023-03-23T09:30:36;99708.50;;;14.87;56.84
78337;BME280;67610;51.588;7.002;2023-03-23T09:33:05;99717.47;;;14.86;57.24
78337;BME280;67610;51.588;7.002;2023-03-23T09:35:35;99772.25;;;14.86;58.44
78337;BME280;67610;51.588;7.002;2023-03-23T09:38:02;99775.09;;;14.78;59.24
78337;BME280;67610;51.588;7.002;2023-03-23T09:40:36;99778.06;;;14.55;60.16
78337;BME280;67610;51.588;7.002;2023-03-23T09:43:38;99782.22;;;14.30;60.78
78337;BME280;67610;51.588;7.002;2023-03-23T09:46:18;99784.28;;;14.07;60.96
78337;BME280;67610;51.588;7.002;2023-03-23T09:49:02;99798.41;;;13.86;61.49
78337;BME280;67610;51.588;7.002;2023-03-23T09:54:20;99790.63;;;13.78;61.78
78337;BME280;67610;51.588;7.002;2023-03-23T09:56:48;99792.78;;;13.68;61.63
78337;BME280;67610;51.588;7.002;2023-03-23T09:59:39;99798.28;;;13.45;62.47
78337;BME280;67610;51.588;7.002;2023-03-23T10:04:46;99800.63;;;13.34;63.82
78337;BME280;67610;51.588;7.002;2023-03-23T10:07:25;99787.22;;;13.35;63.33
78337;BME280;67610;51.588;7.002;2023-03-23T10:09:56;99792.44;;;13.28;63.98
78337;BME280;67610;51.588;7.002;2023-03-23T10:12:38;99797.31;;;13.25;63.96
78337;BME280;67610;51.588;7.002;2023-03-23T10:17:46;99796.47;;;13.24;64.29
78337;BME280;67610;51.588;7.002;2023-03-23T10:28:17;99817.34;;;13.19;64.66
78337;BME280;67610;51.588;7.002;2023-03-23T10:30:48;99814.44;;;13.14;64.94
78337;BME280;67610;51.588;7.002;2023-03-23T10:33:38;99821.59;;;13.20;65.56
78337;BME280;67610;51.588;7.002;2023-03-23T10:36:07;99822.63;;;13.19;65.40
78337;BME280;67610;51.588;7.002;2023-03-23T10:38:44;99817.34;;;13.19;65.99
78337;BME280;67610;51.588;7.002;2023-03-23T10:41:12;99820.88;;;13.26;65.02
78337;BME280;67610;51.588;7.002;2023-03-23T10:43:38;99821.25;;;13.23;65.31
78337;BME280;67610;51.588;7.002;2023-03-23T10:49:11;99831.13;;;13.36;64.80
78337;BME280;67610;51.588;7.002;2023-03-23T10:51:41;99822.25;;;13.44;63.76
78337;BME280;67610;51.588;7.002;2023-03-23T10:54:09;99824.75;;;13.52;63.98
78337;BME280;67610;51.588;7.002;2023-03-23T10:56:40;99825.63;;;13.59;63.60
78337;BME280;67610;51.588;7.002;2023-03-23T10:59:18;99815.13;;;13.65;63.80
78337;BME280;67610;51.588;7.002;2023-03-23T11:01:48;99818.88;;;13.77;63.90
78337;BME280;67610;51.588;7.002;2023-03-23T11:04:16;99821.19;;;13.87;63.06
78337;BME280;67610;51.588;7.002;2023-03-23T11:06:48;99827.84;;;13.83;63.04
78337;BME280;67610;51.588;7.002;2023-03-23T11:09:18;99830.69;;;13.81;63.10
78337;BME280;67610;51.588;7.002;2023-03-23T11:11:52;99837.63;;;13.82;63.25
78337;BME280;67610;51.588;7.002;2023-03-23T11:14:28;99822.97;;;13.80;63.21
78337;BME280;67610;51.588;7.002;2023-03-23T11:16:54;99836.75;;;13.75;63.32
78337;BME280;67610;51.588;7.002;2023-03-23T11:19:29;99837.97;;;13.73;63.82
78337;BME280;67610;51.588;7.002;2023-03-23T11:24:41;99829.28;;;13.58;64.53
78337;BME280;67610;51.588;7.002;2023-03-23T11:27:09;99834.50;;;13.51;64.94
78337;BME280;67610;51.588;7.002;2023-03-23T11:29:37;99837.91;;;13.45;65.18
78337;BME280;67610;51.588;7.002;2023-03-23T11:32:10;99831.44;;;13.48;65.46
78337;BME280;67610;51.588;7.002;2023-03-23T11:34:44;99830.88;;;13.52;65.66
78337;BME280;67610;51.588;7.002;2023-03-23T11:37:25;99824.41;;;13.55;65.81
78337;BME280;67610;51.588;7.002;2023-03-23T11:39:56;99826.06;;;13.62;65.83
78337;BME280;67610;51.588;7.002;2023-03-23T11:45:18;99816.47;;;13.82;66.25
78337;BME280;67610;51.588;7.002;2023-03-23T11:50:34;99819.41;;;13.94;66.21
78337;BME280;67610;51.588;7.002;2023-03-23T11:53:27;99811.06;;;13.97;65.70
78337;BME280;67610;51.588;7.002;2023-03-23T11:56:08;99810.09;;;13.98;65.53
78337;BME280;67610;51.588;7.002;2023-03-23T11:58:36;99828.34;;;13.93;65.88
78337;BME280;67610;51.588;7.002;2023-03-23T12:03:58;99804.59;;;13.99;65.39
78337;BME280;67610;51.588;7.002;2023-03-23T12:06:32;99802.69;;;13.87;65.99
78337;BME280;67610;51.588;7.002;2023-03-23T12:09:10;99813.34;;;14.00;65.91
78337;BME280;67610;51.588;7.002;2023-03-23T12:17:20;99826.84;;;14.12;65.35
78337;BME280;67610;51.588;7.002;2023-03-23T12:20:00;99826.63;;;14.13;65.16
78337;BME280;67610;51.588;7.002;2023-03-23T12:27:51;99847.50;;;14.01;65.77
78337;BME280;67610;51.588;7.002;2023-03-23T12:36:05;99835.28;;;13.94;66.39
78337;BME280;67610;51.588;7.002;2023-03-23T12:48:55;99839.75;;;14.28;66.28
78337;BME280;67610;51.588;7.002;2023-03-23T12:51:31;99842.56;;;14.47;66.29
78337;BME280;67610;51.588;7.002;2023-03-23T12:57:14;99833.03;;;14.59;66.12
78337;BME280;67610;51.588;7.002;2023-03-23T12:59:44;99835.16;;;14.77;65.88
78337;BME280;67610;51.588;7.002;2023-03-23T13:02:19;99838.81;;;14.83;66.21
78337;BME280;67610;51.588;7.002;2023-03-23T13:04:51;99824.81;;;14.89;66.60
78337;BME280;67610;51.588;7.002;2023-03-23T13:07:24;99824.22;;;15.00;65.91
78337;BME280;67610;51.588;7.002;2023-03-23T13:10:15;99833.00;;;15.07;65.46
78337;BME280;67610;51.588;7.002;2023-03-23T13:12:37;99814.09;;;15.10;65.46
78337;BME280;67610;51.588;7.002;2023-03-23T13:15:39;99818.75;;;15.08;65.42
78337;BME280;67610;51.588;7.002;2023-03-23T13:18:45;99817.97;;;15.20;65.35
78337;BME280;67610;51.588;7.002;2023-03-23T13:23:44;99793.94;;;15.35;65.41
78337;BME280;67610;51.588;7.002;2023-03-23T13:26:18;99789.72;;;15.47;64.30
78337;BME280;67610;51.588;7.002;2023-03-23T13:31:27;99773.81;;;15.54;64.28
78337;BME280;67610;51.588;7.002;2023-03-23T13:34:26;99775.84;;;15.52;64.72
78337;BME280;67610;51.588;7.002;2023-03-23T13:36:58;99787.25;;;15.52;64.72
78337;BME280;67610;51.588;7.002;2023-03-23T13:39:31;99791.75;;;15.58;64.28
78337;BME280;67610;51.588;7.002;2023-03-23T13:42:22;99787.88;;;15.67;64.33
78337;BME280;67610;51.588;7.002;2023-03-23T13:50:12;99790.69;;;15.66;63.84
78337;BME280;67610;51.588;7.002;2023-03-23T14:10:36;99796.81;;;15.66;62.39
78337;BME280;67610;51.588;7.002;2023-03-23T14:13:04;99800.50;;;15.72;62.17
78337;BME280;67610;51.588;7.002;2023-03-23T14:15:40;99786.41;;;15.78;61.65
78337;BME280;67610;51.588;7.002;2023-03-23T14:18:14;99788.88;;;15.79;61.53
78337;BME280;67610;51.588;7.002;2023-03-23T14:20:41;99790.91;;;15.84;60.94
78337;BME280;67610;51.588;7.002;2023-03-23T14:23:15;99786.00;;;15.87;60.74
78337;BME280;67610;51.588;7.002;2023-03-23T14:25:41;99777.22;;;15.80;60.78
78337;BME280;67610;51.588;7.002;2023-03-23T14:28:19;99784.38;;;15.86;60.56
78337;BME280;67610;51.588;7.002;2023-03-23T14:30:47;99785.78;;;15.89;60.78
78337;BME280;67610;51.588;7.002;2023-03-23T14:33:13;99785.38;;;15.92;60.62
78337;BME280;67610;51.588;7.002;2023-03-23T14:35:42;99790.88;;;16.03;60.58
78337;BME280;67610;51.588;7.002;2023-03-23T14:38:17;99791.88;;;16.09;60.46
78337;BME280;67610;51.588;7.002;2023-03-23T14:40:44;99787.81;;;16.06;60.86
78337;BME280;67610;51.588;7.002;2023-03-23T14:43:14;99781.91;;;16.04;60.43
78337;BME280;67610;51.588;7.002;2023-03-23T14:45:40;99776.16;;;16.07;60.82
78337;BME280;67610;51.588;7.002;2023-03-23T14:48:06;99767.78;;;16.11;61.08
78337;BME280;67610;51.588;7.002;2023-03-23T14:50:39;99762.09;;;16.14;61.00
78337;BME280;67610;51.588;7.002;2023-03-23T14:53:28;99776.75;;;16.09;61.26
78337;BME280;67610;51.588;7.002;2023-03-23T14:55:55;99790.22;;;16.15;61.21
78337;BME280;67610;51.588;7.002;2023-03-23T14:58:23;99785.75;;;16.15;61.52